createdAt,value
2022-08-14T00:02:19.074Z,99948.41
2022-08-14T00:04:47.678Z,99976.41
2022-08-14T00:07:16.346Z,99945.75
2022-08-14T00:10:02.518Z,99949.72
2022-08-14T00:12:39.128Z,99939.41
2022-08-14T00:15:21.936Z,99970.25
2022-08-14T00:17:53.629Z,99980.84
2022-08-14T00:20:35.842Z,99924.66
2022-08-14T00:23:16.641Z,99940.94
2022-08-14T00:25:54.095Z,99909.50
2022-08-14T00:28:36.917Z,99969.44
2022-08-14T00:31:09.600Z,99949.19
2022-08-14T00:33:51.468Z,99971.41
2022-08-14T00:36:36.387Z,99976.72
2022-08-14T00:39:17.969Z,99973.38
2022-08-14T00:41:47.541Z,99946.16
2022-08-14T00:44:26.676Z,99949.16
2022-08-14T00:47:03.862Z,99968.22
2022-08-14T00:49:37.847Z,99926.50
2022-08-14T00:52:14.236Z,99960.31
2022-08-14T00:54:53.082Z,99958.31
2022-08-14T00:57:28.427Z,99968.13
2022-08-14T00:59:58.477Z,99970.31
2022-08-14T01:02:31.948Z,99960.63
2022-08-14T01:05:02.915Z,99972.88
2022-08-14T01:07:38.589Z,99951.00
2022-08-14T01:10:16.891Z,99950.22
2022-08-14T01:12:47.897Z,99952.38
2022-08-14T01:15:31.775Z,99960.31
2022-08-14T01:18:29.343Z,99955.53
2022-08-14T01:21:07.198Z,99911.22
2022-08-14T01:23:46.690Z,99957.78
2022-08-14T01:26:23.527Z,99955.84
2022-08-14T01:29:06.872Z,99931.25
2022-08-14T01:31:42.687Z,99910.53
2022-08-14T01:35:19.978Z,99932.78
2022-08-14T01:37:03.105Z,99894.06
2022-08-14T01:39:38.205Z,99938.28
2022-08-14T01:42:07.124Z,99927.84
2022-08-14T01:44:41.316Z,99942.94
2022-08-14T01:47:21.840Z,99940.91
2022-08-14T01:49:59.745Z,99922.59
2022-08-14T01:52:58.760Z,99926.59
2022-08-14T01:55:30.740Z,99922.81
2022-08-14T01:58:18.107Z,99910.84
2022-08-14T02:00:48.412Z,99927.78
2022-08-14T02:03:17.966Z,99922.97
2022-08-14T02:05:47.085Z,99880.50
2022-08-14T02:08:16.031Z,99867.91
2022-08-14T02:11:16.053Z,99902.09
2022-08-14T02:13:50.558Z,99903.06
2022-08-14T02:16:26.249Z,99910.53
2022-08-14T02:18:56.858Z,99908.41
2022-08-14T02:21:27.807Z,99911.91
2022-08-14T02:23:57.533Z,99901.25
2022-08-14T02:26:30.968Z,99903.47
2022-08-14T02:29:03.449Z,99922.06
2022-08-14T02:31:43.226Z,99923.44
2022-08-14T02:34:22.162Z,99920.88
2022-08-14T02:37:03.741Z,99890.88
2022-08-14T02:39:37.673Z,99906.47
2022-08-14T02:42:13.114Z,99929.94
2022-08-14T02:44:49.418Z,99927.00
2022-08-14T02:47:20.952Z,99893.09
2022-08-14T02:49:54.799Z,99930.69
2022-08-14T02:52:57.460Z,99890.56
2022-08-14T02:55:20.099Z,99929.31
2022-08-14T02:58:03.209Z,99927.34
2022-08-14T03:00:39.689Z,99922.06
2022-08-14T03:03:09.143Z,99913.78
2022-08-14T03:05:41.136Z,99922.94
2022-08-14T03:08:16.015Z,99915.69
2022-08-14T03:10:49.242Z,99911.84
2022-08-14T03:13:21.603Z,99923.63
2022-08-14T03:15:56.085Z,99923.69
2022-08-14T03:18:30.904Z,99911.44
2022-08-14T03:21:02.557Z,99928.78
2022-08-14T03:23:37.858Z,99928.41
2022-08-14T03:26:13.135Z,99925.13
2022-08-14T03:28:51.290Z,99921.25
2022-08-14T03:31:26.019Z,99929.00
2022-08-14T03:34:00.137Z,99913.53
2022-08-14T03:37:37.816Z,99924.66
2022-08-14T03:39:24.177Z,99932.41
2022-08-14T03:41:59.807Z,99927.13
2022-08-14T03:45:19.717Z,99935.13
2022-08-14T03:47:21.044Z,99914.66
2022-08-14T03:49:50.415Z,99914.59
2022-08-14T03:52:55.573Z,99929.88
2022-08-14T03:55:12.464Z,99893.31
2022-08-14T03:57:41.539Z,99857.66
2022-08-14T04:00:42.730Z,99887.75
2022-08-14T04:03:04.880Z,99902.03
2022-08-14T04:05:38.110Z,99925.88
2022-08-14T04:08:29.293Z,99904.66
2022-08-14T04:11:01.238Z,99934.75
2022-08-14T04:13:31.862Z,99904.16
2022-08-14T04:16:12.350Z,99887.44
2022-08-14T04:18:42.483Z,99890.03
2022-08-14T04:21:12.077Z,99893.09
2022-08-14T04:23:40.918Z,99921.44
2022-08-14T04:26:14.983Z,99910.22
2022-08-14T04:29:08.054Z,99899.13
2022-08-14T04:33:10.596Z,99910.50
2022-08-14T04:34:33.979Z,99919.63
2022-08-14T04:37:24.713Z,99901.88
2022-08-14T04:40:13.218Z,99898.41
2022-08-14T04:43:01.525Z,99884.00
2022-08-14T04:45:37.431Z,99915.44
2022-08-14T04:48:36.614Z,99913.69
2022-08-14T04:51:06.765Z,99905.66
2022-08-14T04:53:40.871Z,99896.50
2022-08-14T04:56:31.099Z,99890.69
2022-08-14T04:59:10.360Z,99893.84
2022-08-14T05:01:48.714Z,99855.25
2022-08-14T05:04:21.814Z,99896.53
2022-08-14T05:06:54.275Z,99882.41
2022-08-14T05:09:29.152Z,99887.69
2022-08-14T05:13:10.701Z,99892.28
2022-08-14T05:14:54.877Z,99886.81
2022-08-14T05:17:32.116Z,99880.44
2022-08-14T05:21:55.311Z,99854.66
2022-08-14T05:23:03.687Z,99893.69
2022-08-14T05:25:34.266Z,99894.09
2022-08-14T05:28:12.526Z,99892.78
2022-08-14T05:30:46.489Z,99860.59
2022-08-14T05:33:16.378Z,99896.03
2022-08-14T05:35:46.811Z,99888.72
2022-08-14T05:38:31.330Z,99850.94
2022-08-14T05:41:01.554Z,99898.94
2022-08-14T05:43:40.994Z,99872.72
2022-08-14T05:46:15.130Z,99878.75
2022-08-14T05:48:44.171Z,99866.94
2022-08-14T05:51:15.457Z,99882.25
2022-08-14T05:53:59.984Z,99872.69
2022-08-14T05:56:33.094Z,99883.03
2022-08-14T05:59:07.386Z,99863.41
2022-08-14T06:01:36.356Z,99852.84
2022-08-14T06:04:05.464Z,99854.22
2022-08-14T06:06:38.650Z,99895.50
2022-08-14T06:09:09.907Z,99849.94
2022-08-14T06:11:39.096Z,99884.66
2022-08-14T06:14:20.606Z,99877.91
2022-08-14T06:16:52.947Z,99862.97
2022-08-14T06:19:23.248Z,99858.91
2022-08-14T06:21:59.325Z,99868.72
2022-08-14T06:24:30.777Z,99860.28
2022-08-14T06:27:06.165Z,99877.25
2022-08-14T06:29:38.764Z,99887.75
2022-08-14T06:32:37.328Z,99895.47
2022-08-14T06:35:02.140Z,99879.47
2022-08-14T06:37:43.951Z,99878.75
2022-08-14T06:40:25.715Z,99861.91
2022-08-14T06:43:00.045Z,99848.06
2022-08-14T06:45:29.587Z,99880.22
2022-08-14T06:47:58.766Z,99843.97
2022-08-14T06:50:30.204Z,99840.41
2022-08-14T06:53:00.550Z,99799.91
2022-08-14T06:55:29.422Z,99862.88
2022-08-14T06:57:58.484Z,99877.63
2022-08-14T07:00:31.087Z,99836.81
2022-08-14T07:03:17.617Z,99870.69
2022-08-14T07:05:55.529Z,99882.75
2022-08-14T07:08:32.076Z,99843.50
2022-08-14T07:11:04.132Z,99880.22
2022-08-14T07:13:32.934Z,99886.97
2022-08-14T07:16:05.501Z,99883.88
2022-08-14T07:18:36.420Z,99844.66
2022-08-14T07:21:07.313Z,99870.75
2022-08-14T07:23:40.183Z,99815.06
2022-08-14T07:26:13.705Z,99834.66
2022-08-14T07:28:44.101Z,99828.63
2022-08-14T07:31:13.875Z,99844.28
2022-08-14T07:33:50.138Z,99843.88
2022-08-14T07:36:27.480Z,99840.00
2022-08-14T07:39:03.085Z,99877.31
2022-08-14T07:41:42.409Z,99850.69
2022-08-14T07:44:29.348Z,99865.44
2022-08-14T07:47:00.881Z,99875.00
2022-08-14T07:49:30.148Z,99877.91
2022-08-14T07:52:00.167Z,99824.94
2022-08-14T07:54:31.786Z,99872.53
2022-08-14T07:57:06.263Z,99882.91
2022-08-14T07:59:44.505Z,99876.53
2022-08-14T08:02:20.368Z,99844.88
2022-08-14T08:04:53.084Z,99871.84
2022-08-14T08:07:23.957Z,99859.47
2022-08-14T08:09:57.250Z,99816.78
2022-08-14T08:12:31.129Z,99841.25
2022-08-14T08:15:03.176Z,99819.25
2022-08-14T08:17:42.766Z,99876.00
2022-08-14T08:20:27.216Z,99873.69
2022-08-14T08:23:00.636Z,99864.06
2022-08-14T08:25:39.838Z,99865.31
2022-08-14T08:28:25.113Z,99868.28
2022-08-14T08:30:56.783Z,99833.66
2022-08-14T08:33:32.093Z,99834.50
2022-08-14T08:36:12.467Z,99842.13
2022-08-14T08:39:17.303Z,99828.88
2022-08-14T08:41:43.345Z,99840.59
2022-08-14T08:44:31.146Z,99851.72
2022-08-14T08:47:05.783Z,99865.75
2022-08-14T08:49:43.207Z,99867.50
2022-08-14T08:52:25.404Z,99855.47
2022-08-14T08:55:01.116Z,99855.22
2022-08-14T08:57:38.065Z,99860.00
2022-08-14T09:00:24.195Z,99864.84
2022-08-14T09:02:57.693Z,99841.88
2022-08-14T09:05:27.492Z,99873.75
2022-08-14T09:07:56.920Z,99833.75
2022-08-14T09:10:27.072Z,99831.91
2022-08-14T09:12:57.910Z,99869.44
2022-08-14T09:15:42.560Z,99834.00
2022-08-14T09:18:12.627Z,99872.13
2022-08-14T09:20:51.352Z,99846.97
2022-08-14T09:23:27.402Z,99811.34
2022-08-14T09:26:05.103Z,99830.66
2022-08-14T09:28:51.463Z,99845.84
2022-08-14T09:31:21.507Z,99824.22
2022-08-14T09:34:09.188Z,99863.50
2022-08-14T09:37:05.101Z,99820.97
2022-08-14T09:39:47.988Z,99818.38
2022-08-14T09:42:33.218Z,99839.19
2022-08-14T09:45:15.458Z,99797.28
2022-08-14T09:47:49.080Z,99824.88
2022-08-14T09:50:28.009Z,99821.69
2022-08-14T09:52:59.621Z,99807.91
2022-08-14T09:55:41.686Z,99854.94
2022-08-14T09:58:20.080Z,99851.09
2022-08-14T10:00:55.071Z,99846.59
2022-08-14T10:03:34.267Z,99817.28
2022-08-14T10:06:10.349Z,99795.91
2022-08-14T10:08:45.385Z,99827.84
2022-08-14T10:11:23.588Z,99846.34
2022-08-14T10:13:55.983Z,99857.41
2022-08-14T10:16:33.758Z,99854.00
2022-08-14T10:19:09.644Z,99834.41
2022-08-14T10:21:58.683Z,99859.53
2022-08-14T10:24:36.688Z,99849.97
2022-08-14T10:27:06.931Z,99846.72
2022-08-14T10:29:38.531Z,99810.88
2022-08-14T10:32:18.187Z,99850.59
2022-08-14T10:35:06.897Z,99840.34
2022-08-14T10:37:46.919Z,99842.78
2022-08-14T10:40:43.495Z,99843.34
2022-08-14T10:43:18.329Z,99824.56
2022-08-14T10:45:59.859Z,99850.91
2022-08-14T10:48:36.803Z,99817.28
2022-08-14T10:51:08.485Z,99837.13
2022-08-14T10:53:39.972Z,99836.31
2022-08-14T10:56:22.074Z,99832.28
2022-08-14T10:59:02.878Z,99831.41
2022-08-14T11:01:40.823Z,99830.50
2022-08-14T11:04:30.723Z,99835.97
2022-08-14T11:06:59.841Z,99805.47
2022-08-14T11:09:32.305Z,99824.34
2022-08-14T11:12:35.078Z,99789.00
2022-08-14T11:14:58.502Z,99823.31
2022-08-14T11:17:32.179Z,99833.88
2022-08-14T11:20:04.046Z,99820.59
2022-08-14T11:23:03.081Z,99792.84
2022-08-14T11:25:24.804Z,99828.13
2022-08-14T11:28:11.036Z,99836.09
2022-08-14T11:30:50.343Z,99795.19
2022-08-14T11:33:24.526Z,99805.75
2022-08-14T11:35:59.656Z,99824.13
2022-08-14T11:38:29.324Z,99794.78
2022-08-14T11:41:00.254Z,99789.81
2022-08-14T11:43:30.702Z,99823.13
2022-08-14T11:46:03.646Z,99817.44
2022-08-14T11:49:03.551Z,99791.22
2022-08-14T11:51:53.463Z,99822.50
2022-08-14T11:54:34.395Z,99797.22
2022-08-14T11:57:05.341Z,99824.16
2022-08-14T11:59:34.272Z,99787.84
2022-08-14T12:02:39.113Z,99826.34
2022-08-14T12:05:03.967Z,99787.19
2022-08-14T12:07:48.305Z,99809.19
2022-08-14T12:10:26.938Z,99814.63
2022-08-14T12:13:17.498Z,99809.47
2022-08-14T12:15:51.462Z,99732.50
2022-08-14T12:18:32.676Z,99792.66
2022-08-14T12:21:15.728Z,99788.84
2022-08-14T12:23:51.276Z,99798.41
2022-08-14T12:26:40.150Z,99793.59
2022-08-14T12:29:11.017Z,99758.47
2022-08-14T12:31:44.729Z,99784.25
2022-08-14T12:34:20.613Z,99751.59
2022-08-14T12:37:04.233Z,99748.91
2022-08-14T12:39:39.793Z,99742.16
2022-08-14T12:42:11.846Z,99779.94
2022-08-14T12:44:59.040Z,99764.50
2022-08-14T12:47:32.555Z,99761.59
2022-08-14T12:50:01.331Z,99776.09
2022-08-14T12:52:45.326Z,99778.50
2022-08-14T12:55:22.063Z,99769.22
2022-08-14T12:57:55.299Z,99763.03
2022-08-14T13:00:26.313Z,99768.22
2022-08-14T13:02:56.898Z,99727.88
2022-08-14T13:05:28.473Z,99699.47
2022-08-14T13:07:59.266Z,99740.50
2022-08-14T13:10:47.477Z,99740.84
2022-08-14T13:13:22.096Z,99717.25
2022-08-14T13:15:56.105Z,99695.72
2022-08-14T13:18:28.026Z,99707.63
2022-08-14T13:21:02.268Z,99728.09
2022-08-14T13:23:36.443Z,99727.09
2022-08-14T13:26:09.146Z,99734.41
2022-08-14T13:29:02.031Z,99723.47
2022-08-14T13:31:34.704Z,99735.13
2022-08-14T13:34:04.474Z,99731.63
2022-08-14T13:36:51.748Z,99732.66
2022-08-14T13:39:24.640Z,99693.47
2022-08-14T13:41:55.605Z,99729.91
2022-08-14T13:44:28.837Z,99728.31
2022-08-14T13:46:58.765Z,99713.81
2022-08-14T13:49:29.163Z,99722.59
2022-08-14T13:52:00.247Z,99726.94
2022-08-14T13:54:32.885Z,99686.31
2022-08-14T13:57:03.944Z,99718.00
2022-08-14T13:59:37.372Z,99740.59
2022-08-14T14:02:09.827Z,99727.75
2022-08-14T14:04:42.197Z,99693.53
2022-08-14T14:07:14.260Z,99722.66
2022-08-14T14:09:52.998Z,99719.94
2022-08-14T14:12:49.179Z,99674.94
2022-08-14T14:15:17.721Z,99674.59
2022-08-14T14:17:47.805Z,99716.88
2022-08-14T14:20:34.581Z,99658.94
2022-08-14T14:23:11.864Z,99700.56
2022-08-14T14:25:48.458Z,99680.81
2022-08-14T14:28:23.889Z,99698.53
2022-08-14T14:30:57.271Z,99656.31
2022-08-14T14:33:49.556Z,99722.03
2022-08-14T14:36:21.876Z,99693.72
2022-08-14T14:38:53.555Z,99666.47
2022-08-14T14:41:23.751Z,99705.78
2022-08-14T14:43:57.880Z,99719.84
2022-08-14T14:46:36.755Z,99674.44
2022-08-14T14:49:08.946Z,99715.16
2022-08-14T14:51:43.430Z,99668.41
2022-08-14T14:54:13.310Z,99706.31
2022-08-14T14:56:52.256Z,99717.75
2022-08-14T14:59:25.405Z,99640.00
2022-08-14T15:02:00.689Z,99706.16
2022-08-14T15:04:29.342Z,99691.97
2022-08-14T15:06:57.895Z,99707.06
2022-08-14T15:09:27.579Z,99710.00
2022-08-14T15:11:57.807Z,99659.44
2022-08-14T15:14:54.781Z,99657.56
2022-08-14T15:17:17.283Z,99721.09
2022-08-14T15:19:56.360Z,99712.06
2022-08-14T15:22:29.055Z,99691.22
2022-08-14T15:24:59.047Z,99710.09
2022-08-14T15:27:29.478Z,99659.88
2022-08-14T15:29:59.621Z,99681.94
2022-08-14T15:32:29.217Z,99673.22
2022-08-14T15:34:58.297Z,99673.16
2022-08-14T15:37:32.626Z,99705.81
2022-08-14T15:40:02.439Z,99703.63
2022-08-14T15:42:38.101Z,99694.16
2022-08-14T15:45:12.864Z,99716.03
2022-08-14T15:47:43.378Z,99666.19
2022-08-14T15:50:13.378Z,99700.81
2022-08-14T15:52:45.032Z,99667.69
2022-08-14T15:55:16.152Z,99704.38
2022-08-14T15:58:02.128Z,99717.06
2022-08-14T16:00:53.878Z,99709.00
2022-08-14T16:03:27.597Z,99692.69
2022-08-14T16:06:05.840Z,99681.53
2022-08-14T16:08:40.151Z,99653.38
2022-08-14T16:11:10.663Z,99645.91
2022-08-14T16:13:43.488Z,99653.66
2022-08-14T16:16:49.391Z,99692.06
2022-08-14T16:19:09.943Z,99636.69
2022-08-14T16:22:01.586Z,99654.94
2022-08-14T16:25:02.207Z,99686.84
2022-08-14T16:27:37.179Z,99665.38
2022-08-14T16:30:24.803Z,99680.06
2022-08-14T16:32:57.051Z,99685.94
2022-08-14T16:35:42.697Z,99694.69
2022-08-14T16:38:19.728Z,99665.44
2022-08-14T16:41:23.255Z,99643.06
2022-08-14T16:43:59.414Z,99646.91
2022-08-14T16:46:31.424Z,99684.94
2022-08-14T16:49:03.214Z,99688.88
2022-08-14T16:51:36.497Z,99684.13
2022-08-14T16:54:21.099Z,99675.38
2022-08-14T16:57:13.810Z,99638.19
2022-08-14T16:59:57.280Z,99646.50
2022-08-14T17:02:36.672Z,99676.84
2022-08-14T17:05:22.060Z,99682.69
2022-08-14T17:08:31.455Z,99685.41
2022-08-14T17:11:10.558Z,99678.03
2022-08-14T17:13:59.738Z,99644.78
2022-08-14T17:16:35.658Z,99641.53
2022-08-14T17:19:05.730Z,99642.88
2022-08-14T17:21:41.915Z,99685.09
2022-08-14T17:24:57.755Z,99635.63
2022-08-14T17:27:03.661Z,99647.00
2022-08-14T17:29:34.573Z,99670.56
2022-08-14T17:32:21.872Z,99681.78
2022-08-14T17:34:57.697Z,99622.03
2022-08-14T17:37:37.776Z,99676.72
2022-08-14T17:40:15.934Z,99660.88
2022-08-14T17:42:55.705Z,99686.47
2022-08-14T17:45:46.803Z,99660.84
2022-08-14T17:49:10.835Z,99663.13
2022-08-14T17:51:23.752Z,99650.50
2022-08-14T17:54:02.323Z,99669.66
2022-08-14T17:56:38.730Z,99665.41
2022-08-14T17:59:08.675Z,99682.72
2022-08-14T18:01:46.448Z,99676.22
2022-08-14T18:04:24.467Z,99697.41
2022-08-14T18:07:16.774Z,99676.50
2022-08-14T18:09:57.610Z,99687.44
2022-08-14T18:12:36.935Z,99691.84
2022-08-14T18:15:14.459Z,99702.19
2022-08-14T18:17:52.742Z,99703.03
2022-08-14T18:21:40.969Z,99696.06
2022-08-14T18:23:14.323Z,99709.88
2022-08-14T18:25:51.618Z,99706.81
2022-08-14T18:28:51.967Z,99641.88
2022-08-14T18:31:43.375Z,99706.41
2022-08-14T18:34:31.741Z,99715.06
2022-08-14T18:37:16.567Z,99710.88
2022-08-14T18:39:51.688Z,99718.88
2022-08-14T18:42:47.091Z,99709.16
2022-08-14T18:45:18.915Z,99695.94
2022-08-14T18:48:33.228Z,99716.91
2022-08-14T18:51:15.125Z,99678.16
2022-08-14T18:53:57.171Z,99705.66
2022-08-14T18:56:58.407Z,99724.22
2022-08-14T18:59:37.536Z,99733.44
2022-08-14T19:02:43.421Z,99734.59
2022-08-14T19:05:14.281Z,99700.38
2022-08-14T19:07:48.162Z,99735.72
2022-08-14T19:10:31.837Z,99718.16
2022-08-14T19:13:11.927Z,99729.88
2022-08-14T19:15:44.745Z,99709.81
2022-08-14T19:18:26.194Z,99717.06
2022-08-14T19:20:59.166Z,99740.41
2022-08-14T19:23:42.095Z,99730.91
2022-08-14T19:26:36.774Z,99742.34
2022-08-14T19:29:21.136Z,99740.94
2022-08-14T19:31:56.253Z,99721.91
2022-08-14T19:34:47.958Z,99690.16
2022-08-14T19:37:52.475Z,99725.00
2022-08-14T19:40:33.961Z,99763.16
2022-08-14T19:43:06.662Z,99756.94
2022-08-14T19:45:38.432Z,99764.91
2022-08-14T19:48:15.757Z,99762.38
2022-08-14T19:50:47.082Z,99787.31
2022-08-14T19:53:18.468Z,99782.47
2022-08-14T19:55:59.644Z,99765.97
2022-08-14T19:58:54.784Z,99749.19
2022-08-14T20:01:37.283Z,99773.88
2022-08-14T20:04:45.017Z,99780.38
2022-08-14T20:07:01.594Z,99724.94
2022-08-14T20:11:04.631Z,99787.44
2022-08-14T20:12:36.618Z,99734.72
2022-08-14T20:15:26.912Z,99798.47
2022-08-14T20:18:46.016Z,99740.41
2022-08-14T20:21:05.753Z,99756.78
2022-08-14T20:23:37.956Z,99793.91
2022-08-14T20:26:30.738Z,99783.09
2022-08-14T20:29:04.588Z,99789.72
2022-08-14T20:31:38.342Z,99815.09
2022-08-14T20:34:24.615Z,99813.59
2022-08-14T20:37:09.802Z,99826.63
2022-08-14T20:39:45.122Z,99818.53
2022-08-14T20:42:43.471Z,99823.03
2022-08-14T20:45:23.660Z,99838.97
2022-08-14T20:47:58.610Z,99825.41
2022-08-14T20:50:32.005Z,99848.31
2022-08-14T20:53:05.694Z,99851.75
2022-08-14T20:55:41.571Z,99829.50
2022-08-14T21:01:33.105Z,99838.50
2022-08-14T21:04:12.033Z,99833.25
2022-08-14T21:07:22.878Z,99826.50
2022-08-14T21:10:03.039Z,99851.78
2022-08-14T21:12:33.537Z,99855.97
2022-08-14T21:15:03.974Z,99831.66
2022-08-14T21:17:37.492Z,99844.44
2022-08-14T21:20:25.626Z,99842.28
2022-08-14T21:23:00.346Z,99864.63
2022-08-14T21:25:31.848Z,99853.03
2022-08-14T21:28:04.239Z,99857.16
2022-08-14T21:30:51.537Z,99857.16
2022-08-14T21:33:23.921Z,99867.78
2022-08-14T21:35:55.038Z,99802.91
2022-08-14T21:38:34.251Z,99815.47
2022-08-14T21:41:43.066Z,99843.66
2022-08-14T21:44:17.401Z,99797.28
2022-08-14T21:46:49.791Z,99859.88
2022-08-14T21:49:23.589Z,99853.91
2022-08-14T21:51:58.831Z,99819.53
2022-08-14T21:54:50.169Z,99853.75
2022-08-14T21:57:55.883Z,99833.25
2022-08-14T22:00:35.346Z,99864.41
2022-08-14T22:03:04.527Z,99882.31
2022-08-14T22:05:34.851Z,99834.09
2022-08-14T22:08:07.522Z,99866.56
2022-08-14T22:10:43.002Z,99835.13
2022-08-14T22:13:17.289Z,99883.25
2022-08-14T22:15:50.067Z,99886.09
2022-08-14T22:18:21.007Z,99830.78
2022-08-14T22:20:56.474Z,99824.84
2022-08-14T22:23:27.172Z,99842.22
2022-08-14T22:25:56.757Z,99870.34
2022-08-14T22:28:32.484Z,99833.78
2022-08-14T22:31:03.793Z,99869.53
2022-08-14T22:33:40.363Z,99866.91
2022-08-14T22:36:34.179Z,99864.91
2022-08-14T22:39:10.965Z,99837.75
2022-08-14T22:41:42.741Z,99845.38
2022-08-14T22:44:15.201Z,99859.13
2022-08-14T22:46:45.228Z,99828.16
2022-08-14T22:49:15.467Z,99853.16
2022-08-14T22:52:32.895Z,99832.63
2022-08-14T22:54:58.737Z,99833.78
2022-08-14T22:57:37.801Z,99837.09
2022-08-14T23:00:16.578Z,99828.44
2022-08-14T23:02:46.806Z,99859.59
2022-08-14T23:05:16.470Z,99822.78
2022-08-14T23:09:02.232Z,99854.91
2022-08-14T23:10:55.692Z,99869.84
2022-08-14T23:13:25.072Z,99831.72
2022-08-14T23:15:55.348Z,99836.19
2022-08-14T23:18:25.383Z,99823.19
2022-08-14T23:20:59.225Z,99815.72
2022-08-14T23:23:29.954Z,99866.44
2022-08-14T23:26:46.883Z,99865.44
2022-08-14T23:28:57.157Z,99858.47
2022-08-14T23:31:36.183Z,99870.72
2022-08-14T23:34:07.558Z,99865.19
2022-08-14T23:36:52.726Z,99850.22
2022-08-14T23:39:29.563Z,99808.81
2022-08-14T23:42:04.563Z,99870.84
2022-08-14T23:44:37.083Z,99837.00
2022-08-14T23:47:11.755Z,99870.09
2022-08-14T23:50:00.877Z,99829.66
2022-08-14T23:53:06.218Z,99827.78
2022-08-14T23:55:29.672Z,99862.97
2022-08-14T23:57:59.279Z,99837.13
